createdAt,value
2022-11-20T00:00:56.000Z,83.41
2022-11-20T00:03:23.988Z,83.20
2022-11-20T00:05:51.780Z,83.46
2022-11-20T00:08:19.404Z,83.86
2022-11-20T00:10:47.063Z,83.93
2022-11-20T00:13:14.679Z,83.72
2022-11-20T00:15:43.664Z,83.87
2022-11-20T00:18:11.291Z,83.92
2022-11-20T00:20:38.978Z,84.13
2022-11-20T00:23:07.873Z,83.83
2022-11-20T00:25:36.415Z,83.97
2022-11-20T00:28:04.151Z,83.74
2022-11-20T00:30:31.813Z,83.76
2022-11-20T00:33:00.845Z,83.77
2022-11-20T00:35:28.477Z,83.81
2022-11-20T00:37:56.225Z,83.83
2022-11-20T00:40:23.879Z,83.80
2022-11-20T00:42:51.536Z,83.79
2022-11-20T00:45:19.192Z,83.90
2022-11-20T00:47:46.836Z,83.66
2022-11-20T00:50:15.816Z,83.82
2022-11-20T00:52:43.504Z,83.71
2022-11-20T00:55:11.110Z,83.96
2022-11-20T00:57:38.781Z,84.10
2022-11-20T01:00:07.992Z,84.03
2022-11-20T01:02:35.597Z,84.26
2022-11-20T01:05:03.291Z,84.41
2022-11-20T01:07:32.367Z,83.96
2022-11-20T01:10:00.009Z,84.28
2022-11-20T01:12:27.619Z,84.14
2022-11-20T01:14:55.349Z,84.34
2022-11-20T01:17:23.071Z,84.35
2022-11-20T01:19:51.513Z,84.35
2022-11-20T01:22:19.171Z,84.12
2022-11-20T01:24:48.123Z,84.73
2022-11-20T01:27:15.817Z,84.12
2022-11-20T01:29:43.451Z,84.33
2022-11-20T01:32:11.100Z,84.24
2022-11-20T01:34:38.719Z,84.38
2022-11-20T01:37:06.413Z,84.38
2022-11-20T01:39:34.097Z,84.20
2022-11-20T01:42:20.746Z,84.39
2022-11-20T01:44:55.996Z,84.50
2022-11-20T01:47:29.155Z,84.58
2022-11-20T01:50:01.618Z,84.44
2022-11-20T01:52:33.545Z,84.23
2022-11-20T01:55:05.787Z,84.64
2022-11-20T01:57:36.856Z,84.75
2022-11-20T02:00:09.555Z,84.79
2022-11-20T02:02:39.608Z,84.10
2022-11-20T02:05:19.437Z,84.28
2022-11-20T02:07:48.460Z,84.27
2022-11-20T02:10:16.600Z,84.96
2022-11-20T02:13:03.426Z,84.74
2022-11-20T02:15:31.102Z,84.66
2022-11-20T02:17:58.945Z,84.83
2022-11-20T02:20:26.937Z,84.42
2022-11-20T02:22:59.886Z,84.57
2022-11-20T02:25:31.064Z,85.07
2022-11-20T02:27:58.856Z,85.03
2022-11-20T02:30:26.703Z,84.69
2022-11-20T02:32:54.364Z,85.13
2022-11-20T02:35:43.780Z,85.06
2022-11-20T02:38:12.441Z,85.33
2022-11-20T02:40:41.516Z,85.83
2022-11-20T02:43:09.474Z,85.75
2022-11-20T02:45:37.100Z,85.29
2022-11-20T02:48:04.936Z,85.24
2022-11-20T02:50:32.627Z,85.93
2022-11-20T02:53:00.244Z,86.12
2022-11-20T02:55:27.951Z,85.64
2022-11-20T02:57:56.984Z,85.95
2022-11-20T03:00:24.744Z,85.75
2022-11-20T03:02:52.369Z,85.66
2022-11-20T03:05:20.033Z,85.20
2022-11-20T03:07:47.651Z,85.83
2022-11-20T03:10:15.421Z,85.59
2022-11-20T03:12:43.060Z,85.24
2022-11-20T03:15:12.601Z,84.99
2022-11-20T03:17:40.317Z,84.84
2022-11-20T03:20:10.066Z,85.34
2022-11-20T03:22:37.788Z,85.61
2022-11-20T03:25:06.288Z,85.31
2022-11-20T03:27:35.798Z,85.59
2022-11-20T03:30:03.645Z,85.74
2022-11-20T03:32:32.656Z,85.32
2022-11-20T03:35:00.287Z,85.50
2022-11-20T03:37:27.957Z,85.51
2022-11-20T03:39:55.604Z,85.35
2022-11-20T03:42:45.946Z,85.18
2022-11-20T03:45:15.192Z,85.82
2022-11-20T03:47:44.479Z,85.57
2022-11-20T03:50:14.386Z,85.93
2022-11-20T03:52:42.446Z,85.44
2022-11-20T03:55:10.303Z,86.00
2022-11-20T03:57:37.935Z,85.53
2022-11-20T04:00:06.426Z,85.97
2022-11-20T04:02:34.114Z,85.63
2022-11-20T04:05:03.091Z,85.33
2022-11-20T04:07:30.720Z,85.70
2022-11-20T04:09:58.375Z,86.03
2022-11-20T04:12:26.015Z,86.03
2022-11-20T04:14:53.633Z,86.18
2022-11-20T04:17:23.802Z,86.15
2022-11-20T04:19:51.478Z,85.55
2022-11-20T04:22:20.536Z,85.75
2022-11-20T04:24:48.135Z,86.29
2022-11-20T04:27:15.732Z,85.76
2022-11-20T04:29:43.395Z,85.87
2022-11-20T04:32:11.247Z,85.48
2022-11-20T04:34:38.974Z,85.84
2022-11-20T04:37:06.585Z,86.36
2022-11-20T04:39:35.598Z,86.18
2022-11-20T04:42:20.640Z,86.18
2022-11-20T04:44:48.276Z,86.04
2022-11-20T04:47:15.912Z,85.77
2022-11-20T04:49:43.589Z,86.55
2022-11-20T04:52:11.333Z,85.50
2022-11-20T04:54:40.353Z,85.80
2022-11-20T04:57:14.097Z,86.18
2022-11-20T04:59:42.365Z,85.74
2022-11-20T05:02:10.160Z,85.83
2022-11-20T05:04:37.805Z,86.06
2022-11-20T05:07:05.540Z,85.76
2022-11-20T05:09:33.473Z,85.65
2022-11-20T05:12:02.504Z,86.05
2022-11-20T05:14:30.156Z,85.99
2022-11-20T05:16:57.920Z,85.84
2022-11-20T05:19:25.607Z,86.34
2022-11-20T05:21:53.351Z,86.29
2022-11-20T05:24:20.944Z,85.96
2022-11-20T05:26:48.598Z,86.11
2022-11-20T05:29:17.651Z,86.65
2022-11-20T05:31:45.316Z,86.02
2022-11-20T05:34:12.953Z,85.61
2022-11-20T05:36:40.561Z,86.02
2022-11-20T05:39:08.183Z,85.94
2022-11-20T05:41:35.845Z,85.88
2022-11-20T05:44:03.494Z,85.68
2022-11-20T05:46:32.554Z,86.67
2022-11-20T05:49:00.532Z,86.17
2022-11-20T05:51:28.858Z,86.19
2022-11-20T05:53:58.943Z,85.89
2022-11-20T05:56:26.683Z,85.68
2022-11-20T05:58:54.312Z,85.89
2022-11-20T06:01:24.143Z,86.17
2022-11-20T06:03:54.638Z,86.39
2022-11-20T06:06:22.949Z,85.84
2022-11-20T06:08:50.951Z,86.10
2022-11-20T06:11:19.264Z,85.82
2022-11-20T06:13:47.708Z,85.98
2022-11-20T06:16:18.241Z,85.65
2022-11-20T06:18:46.456Z,86.51
2022-11-20T06:21:17.123Z,86.35
2022-11-20T06:23:46.286Z,86.06
2022-11-20T06:26:16.747Z,86.00
2022-11-20T06:28:44.422Z,86.30
2022-11-20T06:31:14.356Z,86.04
2022-11-20T06:33:42.139Z,86.43
2022-11-20T06:36:11.405Z,85.93
2022-11-20T06:38:40.945Z,86.02
2022-11-20T06:41:09.434Z,86.78
2022-11-20T06:43:37.063Z,86.21
2022-11-20T06:46:04.970Z,86.04
2022-11-20T06:48:32.749Z,86.27
2022-11-20T06:51:00.986Z,86.25
2022-11-20T06:53:28.649Z,86.34
2022-11-20T06:55:59.527Z,85.83
2022-11-20T06:58:29.578Z,86.40
2022-11-20T07:01:00.580Z,85.91
2022-11-20T07:03:28.300Z,86.37
2022-11-20T07:05:57.075Z,86.16
2022-11-20T07:08:24.867Z,86.76
2022-11-20T07:10:52.839Z,86.48
2022-11-20T07:13:22.008Z,86.23
2022-11-20T07:15:49.643Z,87.06
2022-11-20T07:18:17.270Z,86.58
2022-11-20T07:20:44.929Z,86.69
2022-11-20T07:23:12.685Z,86.59
2022-11-20T07:25:40.336Z,86.94
2022-11-20T07:28:07.981Z,86.36
2022-11-20T07:30:36.989Z,86.50
2022-11-20T07:33:04.899Z,86.44
2022-11-20T07:35:32.972Z,86.04
2022-11-20T07:38:00.704Z,86.42
2022-11-20T07:40:28.394Z,86.27
2022-11-20T07:42:57.203Z,86.58
2022-11-20T07:45:26.020Z,86.57
2022-11-20T07:47:55.018Z,86.92
2022-11-20T07:50:25.578Z,86.71
2022-11-20T07:52:53.462Z,86.42
2022-11-20T07:55:21.177Z,86.18
2022-11-20T07:57:56.416Z,86.32
2022-11-20T08:00:24.287Z,86.36
2022-11-20T08:02:51.970Z,86.23
2022-11-20T08:05:21.067Z,86.24
2022-11-20T08:07:48.762Z,86.17
2022-11-20T08:10:17.914Z,86.45
2022-11-20T08:13:04.010Z,86.45
2022-11-20T08:15:31.857Z,86.60
2022-11-20T08:18:29.326Z,86.78
2022-11-20T08:20:53.748Z,85.91
2022-11-20T08:23:25.216Z,86.32
2022-11-20T08:25:52.941Z,86.85
2022-11-20T08:28:22.071Z,86.91
2022-11-20T08:30:51.001Z,86.73
2022-11-20T08:33:19.434Z,86.76
2022-11-20T08:35:47.229Z,86.26
2022-11-20T08:38:16.546Z,86.44
2022-11-20T08:41:05.310Z,86.78
2022-11-20T08:43:33.048Z,86.18
2022-11-20T08:46:00.729Z,86.83
2022-11-20T08:48:28.560Z,86.43
2022-11-20T08:50:59.865Z,86.65
2022-11-20T08:53:29.191Z,86.43
2022-11-20T08:55:58.565Z,86.66
2022-11-20T08:58:26.455Z,86.47
2022-11-20T09:00:54.228Z,86.70
2022-11-20T09:03:22.095Z,86.61
2022-11-20T09:05:49.829Z,86.97
2022-11-20T09:08:17.474Z,86.56
2022-11-20T09:10:46.463Z,86.41
2022-11-20T09:13:14.090Z,86.97
2022-11-20T09:15:41.732Z,86.87
2022-11-20T09:18:09.332Z,87.42
2022-11-20T09:20:37.089Z,87.47
2022-11-20T09:23:04.808Z,87.64
2022-11-20T09:25:32.484Z,87.47
2022-11-20T09:28:01.569Z,87.27
2022-11-20T09:30:29.775Z,86.77
2022-11-20T09:32:57.438Z,86.93
2022-11-20T09:35:25.275Z,86.86
2022-11-20T09:37:53.572Z,86.67
2022-11-20T09:40:23.707Z,86.23
2022-11-20T09:42:59.437Z,86.31
2022-11-20T09:45:40.221Z,86.25
2022-11-20T09:48:27.100Z,86.18
2022-11-20T09:51:00.757Z,86.07
2022-11-20T09:53:37.431Z,86.02
2022-11-20T09:56:06.788Z,85.93
2022-11-20T09:58:40.602Z,85.81
2022-11-20T10:01:14.291Z,85.77
2022-11-20T10:03:52.673Z,85.71
2022-11-20T10:06:26.427Z,85.77
2022-11-20T10:09:02.143Z,85.59
2022-11-20T10:11:40.818Z,85.43
2022-11-20T10:14:21.722Z,85.29
2022-11-20T10:17:02.364Z,85.58
2022-11-20T10:19:48.333Z,85.43
2022-11-20T10:22:33.471Z,85.65
2022-11-20T10:25:13.064Z,85.06
2022-11-20T10:27:54.703Z,85.04
2022-11-20T10:30:26.103Z,85.11
2022-11-20T10:33:00.544Z,85.23
2022-11-20T10:35:35.539Z,85.36
2022-11-20T10:38:07.504Z,85.14
2022-11-20T10:40:40.080Z,85.10
2022-11-20T10:43:15.994Z,84.69
2022-11-20T10:45:51.692Z,85.23
2022-11-20T10:48:23.523Z,84.73
2022-11-20T10:51:06.437Z,84.99
2022-11-20T10:53:47.948Z,85.37
2022-11-20T10:56:25.191Z,85.36
2022-11-20T10:59:06.706Z,85.17
2022-11-20T11:01:42.741Z,84.88
2022-11-20T11:04:25.826Z,84.73
2022-11-20T11:06:56.915Z,85.03
2022-11-20T11:09:32.225Z,85.15
2022-11-20T11:12:05.715Z,84.91
2022-11-20T11:14:44.465Z,85.21
2022-11-20T11:17:23.303Z,84.82
2022-11-20T11:20:01.470Z,84.85
2022-11-20T11:22:30.851Z,85.35
2022-11-20T11:24:58.493Z,85.61
2022-11-20T11:27:26.282Z,85.73
2022-11-20T11:30:05.227Z,86.62
2022-11-20T11:32:32.892Z,86.51
2022-11-20T11:35:03.072Z,87.03
2022-11-20T11:37:36.351Z,87.33
2022-11-20T11:40:23.467Z,87.32
2022-11-20T11:42:57.172Z,87.96
2022-11-20T11:45:24.737Z,87.96
2022-11-20T11:47:54.554Z,87.77
2022-11-20T11:50:25.587Z,88.01
2022-11-20T11:53:06.027Z,88.05
2022-11-20T11:55:38.977Z,87.97
2022-11-20T11:58:22.382Z,88.25
2022-11-20T12:00:56.993Z,88.23
2022-11-20T12:03:31.291Z,88.15
2022-11-20T12:06:07.384Z,87.89
2022-11-20T12:08:43.619Z,88.03
2022-11-20T12:11:17.323Z,88.64
2022-11-20T12:13:53.007Z,88.14
2022-11-20T12:16:22.752Z,88.28
2022-11-20T12:18:52.784Z,88.66
2022-11-20T12:21:30.308Z,88.64
2022-11-20T12:24:27.607Z,89.16
2022-11-20T12:27:07.347Z,89.24
2022-11-20T12:29:46.118Z,89.59
2022-11-20T12:32:47.139Z,89.42
2022-11-20T12:35:34.156Z,90.02
2022-11-20T12:38:25.554Z,89.45
2022-11-20T12:40:59.329Z,89.52
2022-11-20T12:43:47.384Z,89.88
2022-11-20T12:46:25.217Z,89.75
2022-11-20T12:52:44.159Z,89.71
2022-11-20T12:55:35.902Z,89.41
2022-11-20T12:58:14.905Z,89.66
2022-11-20T13:00:54.353Z,89.45
2022-11-20T13:03:41.307Z,89.90
2022-11-20T13:06:17.486Z,89.61
2022-11-20T13:08:50.519Z,89.64
2022-11-20T13:11:26.297Z,89.51
2022-11-20T13:14:12.494Z,89.55
2022-11-20T13:16:47.180Z,89.57
2022-11-20T13:19:17.821Z,89.51
2022-11-20T13:21:47.661Z,89.50
2022-11-20T13:24:27.344Z,89.35
2022-11-20T13:27:25.383Z,89.64
2022-11-20T13:30:14.587Z,90.10
2022-11-20T13:32:51.174Z,90.04
2022-11-20T13:35:29.039Z,89.90
2022-11-20T13:38:06.813Z,89.92
2022-11-20T13:40:35.605Z,89.96
2022-11-20T13:43:12.960Z,90.07
2022-11-20T13:45:40.889Z,90.02
2022-11-20T13:48:22.863Z,90.02
2022-11-20T13:51:01.916Z,90.14
2022-11-20T13:53:45.136Z,89.92
2022-11-20T13:56:24.125Z,89.90
2022-11-20T13:59:05.517Z,90.14
2022-11-20T14:01:35.683Z,90.21
2022-11-20T14:04:10.308Z,90.29
2022-11-20T14:06:44.623Z,90.37
2022-11-20T14:09:14.621Z,90.28
2022-11-20T14:11:49.793Z,91.02
2022-11-20T14:14:22.042Z,90.49
2022-11-20T14:16:51.028Z,90.48
2022-11-20T14:19:31.337Z,90.98
2022-11-20T14:22:11.472Z,90.51
2022-11-20T14:24:39.344Z,90.65
2022-11-20T14:27:07.398Z,90.63
2022-11-20T14:29:39.608Z,90.35
2022-11-20T14:32:07.566Z,90.54
2022-11-20T14:34:41.459Z,90.51
2022-11-20T14:37:17.018Z,90.85
2022-11-20T14:39:51.478Z,90.75
2022-11-20T14:42:20.709Z,90.49
2022-11-20T14:44:50.267Z,90.65
2022-11-20T14:47:22.365Z,90.59
2022-11-20T14:49:51.722Z,90.87
2022-11-20T14:52:21.632Z,90.67
2022-11-20T14:54:51.258Z,90.83
2022-11-20T14:57:27.326Z,90.54
2022-11-20T15:00:10.169Z,90.63
2022-11-20T15:02:41.501Z,90.77
2022-11-20T15:05:09.479Z,90.84
2022-11-20T15:07:41.090Z,90.83
2022-11-20T15:10:10.927Z,90.85
2022-11-20T15:12:42.262Z,90.75
2022-11-20T15:15:17.130Z,91.25
2022-11-20T15:17:44.925Z,91.03
2022-11-20T15:20:16.708Z,90.73
2022-11-20T15:22:44.380Z,90.74
2022-11-20T15:25:16.814Z,90.92
2022-11-20T15:27:45.457Z,91.27
2022-11-20T15:30:19.746Z,90.89
2022-11-20T15:32:48.132Z,91.01
2022-11-20T15:35:17.267Z,90.55
2022-11-20T15:37:45.042Z,90.91
2022-11-20T15:40:13.525Z,91.26
2022-11-20T15:43:01.542Z,91.77
2022-11-20T15:45:33.019Z,91.56
2022-11-20T15:48:01.242Z,91.61
2022-11-20T15:50:35.957Z,91.34
2022-11-20T15:53:03.950Z,91.49
2022-11-20T15:55:32.442Z,91.47
2022-11-20T15:58:00.041Z,91.60
2022-11-20T16:00:27.952Z,91.44
2022-11-20T16:02:57.194Z,91.54
2022-11-20T16:05:25.204Z,91.53
2022-11-20T16:07:53.135Z,91.47
2022-11-20T16:10:21.102Z,91.39
2022-11-20T16:13:06.252Z,91.66
2022-11-20T16:15:49.142Z,91.60
2022-11-20T16:18:21.187Z,91.74
2022-11-20T16:20:50.425Z,91.38
2022-11-20T16:23:18.872Z,91.66
2022-11-20T16:25:46.596Z,91.88
2022-11-20T16:28:18.797Z,92.04
2022-11-20T16:30:47.073Z,91.70
2022-11-20T16:33:17.915Z,92.00
2022-11-20T16:35:47.046Z,91.73
2022-11-20T16:38:14.779Z,91.85
2022-11-20T16:40:42.477Z,91.82
2022-11-20T16:43:12.089Z,91.82
2022-11-20T16:45:43.884Z,91.84
2022-11-20T16:48:15.267Z,91.67
2022-11-20T16:50:52.394Z,91.64
2022-11-20T16:53:21.244Z,91.81
2022-11-20T16:55:49.302Z,91.91
2022-11-20T16:58:17.152Z,91.74
2022-11-20T17:00:51.226Z,92.18
2022-11-20T17:03:20.926Z,92.13
2022-11-20T17:05:50.118Z,91.93
2022-11-20T17:08:17.834Z,92.24
2022-11-20T17:10:45.606Z,92.07
2022-11-20T17:13:13.339Z,91.83
2022-11-20T17:15:41.143Z,92.04
2022-11-20T17:18:08.859Z,92.19
2022-11-20T17:20:36.582Z,92.13
2022-11-20T17:23:05.689Z,91.86
2022-11-20T17:25:34.592Z,91.69
2022-11-20T17:28:02.265Z,91.94
2022-11-20T17:30:29.940Z,91.96
2022-11-20T17:32:57.664Z,92.09
2022-11-20T17:35:25.415Z,92.12
2022-11-20T17:37:53.113Z,92.32
2022-11-20T17:40:27.143Z,91.72
2022-11-20T17:42:55.429Z,92.12
2022-11-20T17:45:23.144Z,91.73
2022-11-20T17:47:50.903Z,91.81
2022-11-20T17:50:18.737Z,91.78
2022-11-20T17:52:46.459Z,92.06
2022-11-20T17:55:14.131Z,92.01
2022-11-20T17:57:55.998Z,92.12
2022-11-20T18:00:25.211Z,92.03
2022-11-20T18:02:52.919Z,92.20
2022-11-20T18:05:20.593Z,92.30
2022-11-20T18:07:48.354Z,92.06
2022-11-20T18:10:16.165Z,91.85
2022-11-20T18:12:45.367Z,92.39
2022-11-20T18:15:13.036Z,91.86
2022-11-20T18:17:40.802Z,92.14
2022-11-20T18:22:58.377Z,92.26
2022-11-20T18:25:26.213Z,92.12
2022-11-20T18:27:55.812Z,92.03
2022-11-20T18:30:23.553Z,92.48
2022-11-20T18:32:51.337Z,92.46
2022-11-20T18:35:19.116Z,92.13
2022-11-20T18:37:46.805Z,92.01
2022-11-20T18:40:15.388Z,92.69
2022-11-20T18:43:00.753Z,92.56
2022-11-20T18:45:30.419Z,92.33
2022-11-20T18:47:58.108Z,92.47
2022-11-20T18:50:25.864Z,92.62
2022-11-20T18:52:53.645Z,92.73
2022-11-20T18:55:24.296Z,92.09
2022-11-20T18:57:52.657Z,92.17
2022-11-20T19:00:20.689Z,92.53
2022-11-20T19:02:49.794Z,92.58
2022-11-20T19:05:17.609Z,91.97
2022-11-20T19:07:45.441Z,92.19
2022-11-20T19:10:13.256Z,92.62
2022-11-20T19:12:40.988Z,92.64
2022-11-20T19:15:09.022Z,92.56
2022-11-20T19:17:36.762Z,92.27
2022-11-20T19:20:06.621Z,92.65
2022-11-20T19:22:34.400Z,92.61
2022-11-20T19:25:02.353Z,92.69
2022-11-20T19:27:30.207Z,92.19
2022-11-20T19:30:03.271Z,92.77
2022-11-20T19:32:31.413Z,92.79
2022-11-20T19:34:59.249Z,92.13
2022-11-20T19:37:28.518Z,92.68
2022-11-20T19:39:59.678Z,92.42
2022-11-20T19:42:27.543Z,92.50
2022-11-20T19:44:55.389Z,92.50
2022-11-20T19:47:35.387Z,92.68
2022-11-20T19:50:11.617Z,92.48
2022-11-20T19:52:40.932Z,92.84
2022-11-20T19:55:10.124Z,92.85
2022-11-20T19:57:37.971Z,92.59
2022-11-20T20:00:06.701Z,92.54
2022-11-20T20:02:34.541Z,92.55
2022-11-20T20:05:02.398Z,92.43
2022-11-20T20:07:30.336Z,92.80
2022-11-20T20:09:59.659Z,92.69
2022-11-20T20:12:27.515Z,92.93
2022-11-20T20:14:55.384Z,92.88
2022-11-20T20:17:23.260Z,92.88
2022-11-20T20:19:51.066Z,92.63
2022-11-20T20:22:18.911Z,92.55
2022-11-20T20:24:46.738Z,92.51
2022-11-20T20:27:15.963Z,92.70
2022-11-20T20:29:43.840Z,92.86
2022-11-20T20:32:11.642Z,92.52
2022-11-20T20:34:39.416Z,92.66
2022-11-20T20:37:07.176Z,92.52
2022-11-20T20:39:34.998Z,93.24
2022-11-20T20:42:03.040Z,92.79
2022-11-20T20:44:49.697Z,92.65
2022-11-20T20:47:17.562Z,92.92
2022-11-20T20:49:45.424Z,92.98
2022-11-20T20:52:13.258Z,92.96
2022-11-20T20:54:42.353Z,92.71
2022-11-20T20:57:10.159Z,92.81
2022-11-20T20:59:39.403Z,92.72
2022-11-20T21:02:07.293Z,93.30
2022-11-20T21:04:35.224Z,93.30
2022-11-20T21:07:03.028Z,92.96
2022-11-20T21:09:31.061Z,93.09
2022-11-20T21:11:58.916Z,92.56
2022-11-20T21:17:14.998Z,92.98
2022-11-20T21:19:43.264Z,92.79
2022-11-20T21:22:09.938Z,93.46
2022-11-20T21:24:37.834Z,93.05
2022-11-20T21:27:06.983Z,92.81
2022-11-20T21:29:34.770Z,92.61
2022-11-20T21:32:02.535Z,93.38
2022-11-20T21:34:31.917Z,93.20
2022-11-20T21:36:59.631Z,93.07
2022-11-20T21:39:27.316Z,93.26
2022-11-20T21:41:55.046Z,93.08
2022-11-20T21:44:31.417Z,93.22
2022-11-20T21:47:09.677Z,92.91
2022-11-20T21:49:40.335Z,93.52
2022-11-20T21:52:08.060Z,93.12
2022-11-20T21:54:36.654Z,92.96
2022-11-20T21:57:04.557Z,92.91
2022-11-20T21:59:32.325Z,92.87
2022-11-20T22:02:00.036Z,92.87
2022-11-20T22:04:27.800Z,92.78
2022-11-20T22:06:57.023Z,92.67
2022-11-20T22:09:24.872Z,93.58
2022-11-20T22:11:52.661Z,93.33
2022-11-20T22:14:22.794Z,92.92
2022-11-20T22:16:52.770Z,93.21
2022-11-20T22:19:22.153Z,92.82
2022-11-20T22:21:50.640Z,93.53
2022-11-20T22:24:21.483Z,92.74
2022-11-20T22:26:49.562Z,92.70
2022-11-20T22:29:18.862Z,93.17
2022-11-20T22:31:46.610Z,93.24
2022-11-20T22:34:14.921Z,92.55
2022-11-20T22:36:42.722Z,92.94
2022-11-20T22:39:10.692Z,93.29
2022-11-20T22:41:39.877Z,93.26
2022-11-20T22:44:09.075Z,92.82
2022-11-20T22:46:38.193Z,92.95
2022-11-20T22:49:08.471Z,93.42
2022-11-20T22:51:37.773Z,93.56
2022-11-20T22:54:06.217Z,93.31
2022-11-20T22:56:34.522Z,92.90
2022-11-20T22:59:04.145Z,93.05
2022-11-20T23:01:33.610Z,92.82
2022-11-20T23:04:03.801Z,92.99
2022-11-20T23:06:34.136Z,93.19
2022-11-20T23:09:02.319Z,93.38
2022-11-20T23:11:32.084Z,93.21
2022-11-20T23:14:01.473Z,92.91
2022-11-20T23:16:32.379Z,93.32
2022-11-20T23:19:02.149Z,93.49
2022-11-20T23:21:29.876Z,93.61
2022-11-20T23:23:59.079Z,93.04
2022-11-20T23:26:28.524Z,92.99
2022-11-20T23:28:58.925Z,93.33
2022-11-20T23:31:27.977Z,92.95
2022-11-20T23:33:57.142Z,92.81
2022-11-20T23:36:25.240Z,93.14
2022-11-20T23:38:52.935Z,93.72
2022-11-20T23:41:20.774Z,93.49
2022-11-20T23:43:48.517Z,93.50
2022-11-20T23:46:17.094Z,92.91
2022-11-20T23:48:45.985Z,93.36
2022-11-20T23:51:15.623Z,93.23
2022-11-20T23:53:43.664Z,93.27
2022-11-20T23:56:14.322Z,93.04
2022-11-20T23:58:42.362Z,92.91
